Mountain Village, AK (99632)

4:17 PM AKDT on July 23, 2016 (GMT -0800)
Mountain Village Airport | | Change Station

Elev 338 ft 62.09 °N, 163.69 °W | Updated 21 minutes ago

Light Rain
Light Rain Mist
53 °F
Feels Like 53 °F
N
9
Wind Variable Wind from WNW

Today
High -- | Low -- °F
--% Chance of Precip.
Yesterday
High -- | Low -- °F
Precip. -- in
Pressure 29.69 in
Visibility 4.0 miles
Clouds Mostly Cloudy 500 ft
Mostly Cloudy 1000 ft
Overcast 1700 ft
Dew Point 52 °F
Humidity 96%
Rainfall 0.16 in
Snow Depth Not available.
5:58 AM 0:02 AM
Waning Gibbous, 81% visible
METAR PAMO 232356Z AUTO 29008KT 4SM -RA BR BKN005 BKN010 OVC017 12/11 A2964 RMK AO2 RAB2259 CIG 003V007 SLP053 P0000 60006 T01170111 10122 20094 56016
Pressure 29.69 in
Visibility 4.0 miles
Clouds Mostly Cloudy 500 ft
Mostly Cloudy 1000 ft
Overcast 1700 ft
Dew Point 52 °F
Humidity 96%
Rainfall 0.16 in
Snow Depth Not available.
5:58 AM 0:02 AM
Waning Gibbous, 81% visible
METAR PAMO 232356Z AUTO 29008KT 4SM -RA BR BKN005 BKN010 OVC017 12/11 A2964 RMK AO2 RAB2259 CIG 003V007 SLP053 P0000 60006 T01170111 10122 20094 56016

10-Day Weather Forecast

Almanac

Astronomy

Jul. 23, 2016 Rise Set
Actual Time
Civil Twilight
Nautical Twilight
Astronomical Twilight
Moon
Length of Visible Light
Length of Day
Tomorrow will be .
, % of the Moon is Illuminated

Today's Extremes

State Highs State Lows

Community

WunderPhotos

Upload Photos

1,926,979 photos uploaded!

WunderBlog® & News

Nearby

Air Quality

  Air Quality AQ Index Pollutant
Not available.

Snow Depth

Station Depth Elevation

Earthquake Activity

City Distance Mag. Time & Date
Minimum magnitude displayed is 2.5.

Coastal Water Temperatures

Place Temperature

Stations

Nearby Weather Stations

Station Location Temp. Windchill Dew Point Humidity Wind Precip. Elev Updated Type
                   

Watches & Warnings

There are currently no watches in effect.